Flight Track Log - Related Links

Times and Time Zones

All times are in EDT time to prevent confusion due to time zone crossing. See the N777HF flight status page for this flight to view local times or setup timezone preferences in your user account.

Time Position Orientation Groundspeed Altitude Reporting Facility
EDT Latitude Longitude Course Direction KTS MPH feet Rate Location/Type
Mon 06:00:19 PM 39.2119 -120.2844 209° Southwest 202 232 12,000  Level Oakland Center
Mon 06:01:20 PM 39.1714 -120.3419 228° Southwest 215 247 13,300 1,366 Climbing Oakland Center
Mon 06:02:22 PM 39.1250 -120.3789 212° Southwest 202 232 14,800 1,317 Climbing Oakland Center
Mon 06:03:23 PM 39.0647 -120.4142 204° Southwest 196 226 16,000 829 Climbing Oakland Center
Mon 06:04:25 PM 39.0142 -120.4508 209° Southwest 205 236 16,500 244 Climbing Oakland Center
Mon 06:05:00 PM 39.0387 -120.3409 209° Southwest  Level Estimated
Mon 06:05:26 PM 38.9572 -120.4881 207° Southwest 221 254 16,500  Level Oakland Center
Mon 06:06:28 PM 38.8967 -120.5292 208° Southwest 238 274 16,500  Level Oakland Center
Mon 06:07:29 PM 38.8342 -120.5692 207° Southwest 245 282 16,500  Level Oakland Center
Mon 06:08:31 PM 38.7725 -120.6103 207° Southwest 249 287 16,500  Level Oakland Center
Mon 06:09:32 PM 38.7111 -120.6519 208° Southwest 249 287 16,500  Level Oakland Center
Mon 06:10:34 PM 38.6494 -120.6919 207° Southwest 248 285 16,500  Level Oakland Center
Mon 06:11:35 PM 38.5881 -120.7344 208° Southwest 248 285 16,500  Level Oakland Center
Mon 06:12:37 PM 38.5136 -120.7842 208° Southwest 250 288 16,500  Level Oakland Center
Mon 06:13:38 PM 38.4508 -120.8250 207° Southwest 251 289 16,500  Level Oakland Center
Mon 06:14:40 PM 38.3875 -120.8661 207° Southwest 253 291 16,500  Level Oakland Center
Mon 06:15:41 PM 38.3247 -120.9081 208° Southwest 252 290 16,500  Level Oakland Center
Mon 06:16:43 PM 38.2614 -120.9506 208° Southwest 255 293 16,500  Level Oakland Center
Mon 06:17:44 PM 38.1983 -120.9922 207° Southwest 254 292 16,500  Level Oakland Center
Mon 06:18:45 PM 38.1353 -121.0328 207° Southwest 253 291 16,500  Level Oakland Center
Mon 06:19:47 PM 38.0733 -121.0736 207° Southwest 252 290 16,500  Level Oakland Center
Mon 06:20:48 PM 38.0092 -121.1156 207° Southwest 256 295 16,500  Level Oakland Center
Mon 06:21:50 PM 37.9475 -121.1547 207° Southwest 251 289 16,500  Level Oakland Center
Mon 06:22:51 PM 37.8847 -121.1958 207° Southwest 252 290 16,500  Level Oakland Center
Mon 06:23:52 PM 37.8219 -121.2367 207° Southwest 253 291 16,500  Level Oakland Center
Mon 06:24:54 PM 37.7478 -121.2844 207° Southwest 251 289 16,500  Level Oakland Center
Mon 06:25:55 PM 37.6864 -121.3247 207° Southwest 249 287 16,500  Level Oakland Center
Mon 06:26:56 PM 37.6236 -121.3650 207° Southwest 251 289 16,500  Level Oakland Center
Mon 06:27:58 PM 37.5669 -121.4022 208° Southwest 246 283 16,500 -683 Level Oakland Center
Mon 06:28:59 PM 37.5014 -121.4433 206° Southwest 259 298 15,100 -1,426 Descending Oakland Center
Mon 06:30:00 PM 37.4333 -121.4867 207° Southwest 271 312 13,600 -1,317 Descending Oakland Center
Mon 06:31:02 PM 37.3667 -121.5289 207° Southwest 270 311 12,400 -1,171 Descending Oakland Center
Mon 06:32:03 PM 37.2989 -121.5733 208° Southwest 262 302 11,200 -1,220 Descending Oakland Center
Mon 06:33:05 PM 37.2364 -121.6136 207° Southwest 255 293 9,900 -1,317 Descending Oakland Center
Mon 06:34:06 PM 37.1711 -121.6514 205° Southwest 257 296 8,500 -836 Descending Oakland Center
Mon 06:35:07 PM 37.0933 -121.6975 205° Southwest 256 295 8,200 -295 Descending Oakland Center

Login

Don't have an account? Register now (free) for customized features, flight alerts, and more!